sensor_id;sensor_type;location;lat;lon;timestamp;P1;durP1;ratioP1;P2;durP2;ratioP2
10517;SDS011;5307;42.548;22.968;2022-10-26T00:01:01;19.90;;;8.63;;
10517;SDS011;5307;42.548;22.968;2022-10-26T00:03:29;18.95;;;7.82;;
10517;SDS011;5307;42.548;22.968;2022-10-26T00:06:01;18.10;;;7.63;;
10517;SDS011;5307;42.548;22.968;2022-10-26T00:08:28;21.90;;;7.40;;
10517;SDS011;5307;42.548;22.968;2022-10-26T00:10:56;20.15;;;8.32;;
10517;SDS011;5307;42.548;22.968;2022-10-26T00:13:25;21.20;;;8.13;;
10517;SDS011;5307;42.548;22.968;2022-10-26T00:15:52;20.05;;;8.45;;
10517;SDS011;5307;42.548;22.968;2022-10-26T00:18:19;24.08;;;7.72;;
10517;SDS011;5307;42.548;22.968;2022-10-26T00:20:46;18.98;;;7.47;;
10517;SDS011;5307;42.548;22.968;2022-10-26T00:23:13;23.90;;;8.43;;
10517;SDS011;5307;42.548;22.968;2022-10-26T00:25:39;16.88;;;7.88;;
10517;SDS011;5307;42.548;22.968;2022-10-26T00:28:06;15.95;;;7.07;;
10517;SDS011;5307;42.548;22.968;2022-10-26T00:30:37;17.65;;;7.60;;
10517;SDS011;5307;42.548;22.968;2022-10-26T00:33:04;23.33;;;7.30;;
10517;SDS011;5307;42.548;22.968;2022-10-26T00:35:31;14.07;;;6.38;;
10517;SDS011;5307;42.548;22.968;2022-10-26T00:37:57;20.83;;;7.63;;
10517;SDS011;5307;42.548;22.968;2022-10-26T00:40:26;13.15;;;6.45;;
10517;SDS011;5307;42.548;22.968;2022-10-26T00:42:53;15.27;;;6.53;;
10517;SDS011;5307;42.548;22.968;2022-10-26T00:45:21;23.95;;;7.78;;
10517;SDS011;5307;42.548;22.968;2022-10-26T00:47:52;11.40;;;6.90;;
10517;SDS011;5307;42.548;22.968;2022-10-26T00:50:24;18.83;;;7.53;;
10517;SDS011;5307;42.548;22.968;2022-10-26T00:52:55;19.17;;;7.38;;
10517;SDS011;5307;42.548;22.968;2022-10-26T00:55:26;22.83;;;8.07;;
10517;SDS011;5307;42.548;22.968;2022-10-26T00:57:56;15.60;;;7.07;;
10517;SDS011;5307;42.548;22.968;2022-10-26T01:00:24;19.98;;;6.80;;
10517;SDS011;5307;42.548;22.968;2022-10-26T01:02:52;13.80;;;6.55;;
10517;SDS011;5307;42.548;22.968;2022-10-26T01:05:22;16.40;;;6.95;;
10517;SDS011;5307;42.548;22.968;2022-10-26T01:07:49;17.35;;;8.25;;
10517;SDS011;5307;42.548;22.968;2022-10-26T01:10:17;22.27;;;7.50;;
10517;SDS011;5307;42.548;22.968;2022-10-26T01:12:44;20.50;;;6.70;;
10517;SDS011;5307;42.548;22.968;2022-10-26T01:15:11;16.77;;;7.30;;
10517;SDS011;5307;42.548;22.968;2022-10-26T01:17:42;16.55;;;7.57;;
10517;SDS011;5307;42.548;22.968;2022-10-26T01:20:24;15.77;;;6.78;;
10517;SDS011;5307;42.548;22.968;2022-10-26T01:23:24;19.65;;;7.85;;
10517;SDS011;5307;42.548;22.968;2022-10-26T01:26:05;19.33;;;8.10;;
10517;SDS011;5307;42.548;22.968;2022-10-26T01:31:40;15.52;;;7.55;;
10517;SDS011;5307;42.548;22.968;2022-10-26T01:34:13;20.05;;;8.25;;
10517;SDS011;5307;42.548;22.968;2022-10-26T01:36:48;20.40;;;7.72;;
10517;SDS011;5307;42.548;22.968;2022-10-26T01:39:20;18.23;;;7.85;;
10517;SDS011;5307;42.548;22.968;2022-10-26T01:41:52;19.48;;;8.05;;
10517;SDS011;5307;42.548;22.968;2022-10-26T01:44:24;14.27;;;7.78;;
10517;SDS011;5307;42.548;22.968;2022-10-26T01:46:56;19.70;;;8.45;;
10517;SDS011;5307;42.548;22.968;2022-10-26T01:49:25;15.93;;;8.10;;
10517;SDS011;5307;42.548;22.968;2022-10-26T01:51:54;16.70;;;7.43;;
10517;SDS011;5307;42.548;22.968;2022-10-26T01:54:21;14.60;;;7.43;;
10517;SDS011;5307;42.548;22.968;2022-10-26T01:56:48;15.40;;;7.97;;
10517;SDS011;5307;42.548;22.968;2022-10-26T01:59:20;25.83;;;9.02;;
10517;SDS011;5307;42.548;22.968;2022-10-26T02:05:07;14.75;;;7.47;;
10517;SDS011;5307;42.548;22.968;2022-10-26T02:07:44;19.00;;;7.65;;
10517;SDS011;5307;42.548;22.968;2022-10-26T02:10:26;21.35;;;8.05;;
10517;SDS011;5307;42.548;22.968;2022-10-26T02:13:02;21.27;;;8.40;;
10517;SDS011;5307;42.548;22.968;2022-10-26T02:15:37;16.42;;;8.30;;
10517;SDS011;5307;42.548;22.968;2022-10-26T02:18:12;21.00;;;7.75;;
10517;SDS011;5307;42.548;22.968;2022-10-26T02:20:48;18.95;;;8.13;;
10517;SDS011;5307;42.548;22.968;2022-10-26T02:23:19;21.40;;;8.10;;
10517;SDS011;5307;42.548;22.968;2022-10-26T02:25:50;16.20;;;7.70;;
10517;SDS011;5307;42.548;22.968;2022-10-26T02:28:23;14.75;;;7.47;;
10517;SDS011;5307;42.548;22.968;2022-10-26T02:30:54;19.13;;;8.05;;
10517;SDS011;5307;42.548;22.968;2022-10-26T02:33:27;20.73;;;8.18;;
10517;SDS011;5307;42.548;22.968;2022-10-26T02:35:59;18.02;;;7.97;;
10517;SDS011;5307;42.548;22.968;2022-10-26T02:38:28;21.02;;;8.90;;
10517;SDS011;5307;42.548;22.968;2022-10-26T02:40:56;23.27;;;8.93;;
10517;SDS011;5307;42.548;22.968;2022-10-26T02:43:25;22.35;;;8.77;;
10517;SDS011;5307;42.548;22.968;2022-10-26T02:45:55;19.75;;;8.25;;
10517;SDS011;5307;42.548;22.968;2022-10-26T02:48:27;19.40;;;8.48;;
10517;SDS011;5307;42.548;22.968;2022-10-26T02:50:57;17.95;;;9.43;;
10517;SDS011;5307;42.548;22.968;2022-10-26T02:53:28;18.05;;;8.70;;
10517;SDS011;5307;42.548;22.968;2022-10-26T02:56:02;23.40;;;9.27;;
10517;SDS011;5307;42.548;22.968;2022-10-26T02:58:32;22.73;;;9.05;;
10517;SDS011;5307;42.548;22.968;2022-10-26T03:01:04;15.77;;;8.23;;
10517;SDS011;5307;42.548;22.968;2022-10-26T03:03:32;22.83;;;9.30;;
10517;SDS011;5307;42.548;22.968;2022-10-26T03:05:59;19.45;;;8.77;;
10517;SDS011;5307;42.548;22.968;2022-10-26T03:08:26;18.70;;;9.30;;
10517;SDS011;5307;42.548;22.968;2022-10-26T03:10:53;24.45;;;10.20;;
10517;SDS011;5307;42.548;22.968;2022-10-26T03:13:20;23.70;;;10.15;;
10517;SDS011;5307;42.548;22.968;2022-10-26T03:15:47;25.85;;;9.38;;
10517;SDS011;5307;42.548;22.968;2022-10-26T03:18:13;20.55;;;9.75;;
10517;SDS011;5307;42.548;22.968;2022-10-26T03:20:43;21.10;;;9.30;;
10517;SDS011;5307;42.548;22.968;2022-10-26T03:23:10;21.98;;;9.60;;
10517;SDS011;5307;42.548;22.968;2022-10-26T03:25:37;22.02;;;10.95;;
10517;SDS011;5307;42.548;22.968;2022-10-26T03:28:04;26.00;;;10.82;;
10517;SDS011;5307;42.548;22.968;2022-10-26T03:30:31;25.77;;;11.13;;
10517;SDS011;5307;42.548;22.968;2022-10-26T03:32:58;28.40;;;11.02;;
10517;SDS011;5307;42.548;22.968;2022-10-26T03:35:25;27.95;;;12.88;;
10517;SDS011;5307;42.548;22.968;2022-10-26T03:37:53;24.35;;;11.45;;
10517;SDS011;5307;42.548;22.968;2022-10-26T03:43:12;27.40;;;12.07;;
10517;SDS011;5307;42.548;22.968;2022-10-26T03:45:39;21.67;;;10.60;;
10517;SDS011;5307;42.548;22.968;2022-10-26T03:48:08;19.75;;;9.70;;
10517;SDS011;5307;42.548;22.968;2022-10-26T03:50:35;20.83;;;10.10;;
10517;SDS011;5307;42.548;22.968;2022-10-26T03:53:03;30.33;;;10.02;;
10517;SDS011;5307;42.548;22.968;2022-10-26T03:55:30;26.95;;;9.63;;
10517;SDS011;5307;42.548;22.968;2022-10-26T03:57:56;29.77;;;9.98;;
10517;SDS011;5307;42.548;22.968;2022-10-26T04:00:23;31.05;;;10.32;;
10517;SDS011;5307;42.548;22.968;2022-10-26T04:02:53;24.38;;;10.35;;
10517;SDS011;5307;42.548;22.968;2022-10-26T04:05:20;33.35;;;10.18;;
10517;SDS011;5307;42.548;22.968;2022-10-26T04:07:51;21.90;;;10.55;;
10517;SDS011;5307;42.548;22.968;2022-10-26T04:10:19;27.27;;;11.30;;
10517;SDS011;5307;42.548;22.968;2022-10-26T04:12:46;25.23;;;10.73;;
10517;SDS011;5307;42.548;22.968;2022-10-26T04:15:13;32.20;;;10.68;;
10517;SDS011;5307;42.548;22.968;2022-10-26T04:17:41;26.65;;;11.00;;
10517;SDS011;5307;42.548;22.968;2022-10-26T04:20:09;23.23;;;11.05;;
10517;SDS011;5307;42.548;22.968;2022-10-26T04:22:36;30.42;;;12.07;;
10517;SDS011;5307;42.548;22.968;2022-10-26T04:25:04;31.20;;;11.60;;
10517;SDS011;5307;42.548;22.968;2022-10-26T04:27:33;26.85;;;13.30;;
10517;SDS011;5307;42.548;22.968;2022-10-26T04:30:00;31.43;;;13.23;;
10517;SDS011;5307;42.548;22.968;2022-10-26T04:32:27;28.50;;;12.73;;
10517;SDS011;5307;42.548;22.968;2022-10-26T04:34:54;30.58;;;12.13;;
10517;SDS011;5307;42.548;22.968;2022-10-26T04:37:20;25.73;;;11.23;;
10517;SDS011;5307;42.548;22.968;2022-10-26T04:39:47;33.95;;;11.48;;
10517;SDS011;5307;42.548;22.968;2022-10-26T04:42:14;31.10;;;11.25;;
10517;SDS011;5307;42.548;22.968;2022-10-26T04:44:42;23.15;;;10.27;;
10517;SDS011;5307;42.548;22.968;2022-10-26T04:47:09;35.10;;;10.65;;
10517;SDS011;5307;42.548;22.968;2022-10-26T04:49:36;28.65;;;10.95;;
10517;SDS011;5307;42.548;22.968;2022-10-26T04:52:03;23.17;;;9.98;;
10517;SDS011;5307;42.548;22.968;2022-10-26T04:54:30;31.25;;;10.23;;
10517;SDS011;5307;42.548;22.968;2022-10-26T04:56:57;21.98;;;8.25;;
10517;SDS011;5307;42.548;22.968;2022-10-26T04:59:24;23.65;;;8.38;;
10517;SDS011;5307;42.548;22.968;2022-10-26T05:01:52;32.13;;;9.75;;
10517;SDS011;5307;42.548;22.968;2022-10-26T05:04:19;32.78;;;9.30;;
10517;SDS011;5307;42.548;22.968;2022-10-26T05:06:46;19.42;;;8.40;;
10517;SDS011;5307;42.548;22.968;2022-10-26T05:09:12;26.90;;;9.10;;
10517;SDS011;5307;42.548;22.968;2022-10-26T05:11:39;21.23;;;9.38;;
10517;SDS011;5307;42.548;22.968;2022-10-26T05:14:06;20.52;;;10.73;;
10517;SDS011;5307;42.548;22.968;2022-10-26T05:16:33;26.23;;;8.70;;
10517;SDS011;5307;42.548;22.968;2022-10-26T05:19:02;27.83;;;9.48;;
10517;SDS011;5307;42.548;22.968;2022-10-26T05:21:28;23.88;;;9.88;;
10517;SDS011;5307;42.548;22.968;2022-10-26T05:23:55;25.40;;;9.20;;
10517;SDS011;5307;42.548;22.968;2022-10-26T05:26:22;34.50;;;9.93;;
10517;SDS011;5307;42.548;22.968;2022-10-26T05:28:50;45.75;;;13.45;;
10517;SDS011;5307;42.548;22.968;2022-10-26T05:31:17;45.72;;;15.82;;
10517;SDS011;5307;42.548;22.968;2022-10-26T05:33:47;35.72;;;17.60;;
10517;SDS011;5307;42.548;22.968;2022-10-26T05:36:15;44.33;;;16.45;;
10517;SDS011;5307;42.548;22.968;2022-10-26T05:38:42;39.65;;;16.30;;
10517;SDS011;5307;42.548;22.968;2022-10-26T05:41:09;54.45;;;19.38;;
10517;SDS011;5307;42.548;22.968;2022-10-26T05:43:36;33.72;;;17.40;;
10517;SDS011;5307;42.548;22.968;2022-10-26T05:46:03;31.90;;;18.58;;
10517;SDS011;5307;42.548;22.968;2022-10-26T05:48:30;55.58;;;22.88;;
10517;SDS011;5307;42.548;22.968;2022-10-26T05:50:57;45.40;;;22.30;;
10517;SDS011;5307;42.548;22.968;2022-10-26T05:53:26;53.03;;;22.83;;
10517;SDS011;5307;42.548;22.968;2022-10-26T05:55:54;46.10;;;18.92;;
10517;SDS011;5307;42.548;22.968;2022-10-26T05:58:21;41.58;;;17.15;;
10517;SDS011;5307;42.548;22.968;2022-10-26T06:00:55;44.80;;;18.70;;
10517;SDS011;5307;42.548;22.968;2022-10-26T06:03:37;45.47;;;17.40;;
10517;SDS011;5307;42.548;22.968;2022-10-26T06:06:17;36.88;;;17.00;;
10517;SDS011;5307;42.548;22.968;2022-10-26T06:08:46;43.33;;;15.68;;
10517;SDS011;5307;42.548;22.968;2022-10-26T06:11:13;42.00;;;16.52;;
10517;SDS011;5307;42.548;22.968;2022-10-26T06:13:40;38.55;;;15.05;;
10517;SDS011;5307;42.548;22.968;2022-10-26T06:16:19;32.63;;;16.00;;
10517;SDS011;5307;42.548;22.968;2022-10-26T06:18:59;33.25;;;16.35;;
10517;SDS011;5307;42.548;22.968;2022-10-26T06:21:42;36.58;;;16.92;;
10517;SDS011;5307;42.548;22.968;2022-10-26T06:24:23;31.92;;;13.82;;
10517;SDS011;5307;42.548;22.968;2022-10-26T06:26:58;37.00;;;14.50;;
10517;SDS011;5307;42.548;22.968;2022-10-26T06:29:36;41.85;;;13.52;;
10517;SDS011;5307;42.548;22.968;2022-10-26T06:32:10;33.75;;;13.90;;
10517;SDS011;5307;42.548;22.968;2022-10-26T06:34:38;29.60;;;11.63;;
10517;SDS011;5307;42.548;22.968;2022-10-26T06:37:10;26.88;;;10.82;;
10517;SDS011;5307;42.548;22.968;2022-10-26T06:39:41;34.05;;;11.70;;
10517;SDS011;5307;42.548;22.968;2022-10-26T06:42:11;46.83;;;11.50;;
10517;SDS011;5307;42.548;22.968;2022-10-26T06:44:39;30.73;;;11.57;;
10517;SDS011;5307;42.548;22.968;2022-10-26T06:47:08;23.20;;;10.85;;
10517;SDS011;5307;42.548;22.968;2022-10-26T06:49:40;29.05;;;10.98;;
10517;SDS011;5307;42.548;22.968;2022-10-26T06:52:19;28.23;;;9.50;;
10517;SDS011;5307;42.548;22.968;2022-10-26T06:54:54;28.02;;;10.48;;
10517;SDS011;5307;42.548;22.968;2022-10-26T06:57:22;23.52;;;9.00;;
10517;SDS011;5307;42.548;22.968;2022-10-26T06:59:51;22.30;;;8.60;;
10517;SDS011;5307;42.548;22.968;2022-10-26T07:02:20;24.55;;;10.02;;
10517;SDS011;5307;42.548;22.968;2022-10-26T07:04:46;29.10;;;9.55;;
10517;SDS011;5307;42.548;22.968;2022-10-26T07:07:14;23.80;;;8.77;;
10517;SDS011;5307;42.548;22.968;2022-10-26T07:09:43;22.30;;;9.70;;
10517;SDS011;5307;42.548;22.968;2022-10-26T07:12:11;24.88;;;9.70;;
10517;SDS011;5307;42.548;22.968;2022-10-26T07:14:38;34.13;;;10.27;;
10517;SDS011;5307;42.548;22.968;2022-10-26T07:17:05;21.80;;;10.23;;
10517;SDS011;5307;42.548;22.968;2022-10-26T07:19:33;24.55;;;9.73;;
10517;SDS011;5307;42.548;22.968;2022-10-26T07:22:00;21.00;;;10.32;;
10517;SDS011;5307;42.548;22.968;2022-10-26T07:24:27;26.20;;;9.77;;
10517;SDS011;5307;42.548;22.968;2022-10-26T07:26:55;17.77;;;9.13;;
10517;SDS011;5307;42.548;22.968;2022-10-26T07:29:25;25.90;;;10.80;;
10517;SDS011;5307;42.548;22.968;2022-10-26T07:31:52;30.70;;;10.93;;
10517;SDS011;5307;42.548;22.968;2022-10-26T07:34:19;24.55;;;10.77;;
10517;SDS011;5307;42.548;22.968;2022-10-26T07:36:46;23.65;;;10.88;;
10517;SDS011;5307;42.548;22.968;2022-10-26T07:39:13;27.45;;;11.50;;
10517;SDS011;5307;42.548;22.968;2022-10-26T07:41:39;20.83;;;10.20;;
10517;SDS011;5307;42.548;22.968;2022-10-26T07:44:06;22.98;;;10.88;;
10517;SDS011;5307;42.548;22.968;2022-10-26T07:46:34;23.73;;;10.85;;
10517;SDS011;5307;42.548;22.968;2022-10-26T07:49:01;23.80;;;11.70;;
10517;SDS011;5307;42.548;22.968;2022-10-26T07:51:28;34.92;;;12.20;;
10517;SDS011;5307;42.548;22.968;2022-10-26T07:53:55;31.80;;;13.13;;
10517;SDS011;5307;42.548;22.968;2022-10-26T07:56:21;24.60;;;11.48;;
10517;SDS011;5307;42.548;22.968;2022-10-26T07:58:50;25.90;;;11.85;;
10517;SDS011;5307;42.548;22.968;2022-10-26T08:01:17;26.35;;;12.20;;
10517;SDS011;5307;42.548;22.968;2022-10-26T08:03:45;24.55;;;10.77;;
10517;SDS011;5307;42.548;22.968;2022-10-26T08:06:12;26.15;;;11.55;;
10517;SDS011;5307;42.548;22.968;2022-10-26T08:08:39;23.13;;;11.90;;
10517;SDS011;5307;42.548;22.968;2022-10-26T08:11:06;17.17;;;9.20;;
10517;SDS011;5307;42.548;22.968;2022-10-26T08:13:33;23.50;;;11.13;;
10517;SDS011;5307;42.548;22.968;2022-10-26T08:16:01;19.88;;;10.48;;
10517;SDS011;5307;42.548;22.968;2022-10-26T08:18:29;10.25;;;6.82;;
10517;SDS011;5307;42.548;22.968;2022-10-26T08:21:01;11.63;;;4.00;;
10517;SDS011;5307;42.548;22.968;2022-10-26T08:23:30;5.88;;;3.90;;
10517;SDS011;5307;42.548;22.968;2022-10-26T08:25:58;11.43;;;4.32;;
10517;SDS011;5307;42.548;22.968;2022-10-26T08:28:25;7.80;;;2.88;;
10517;SDS011;5307;42.548;22.968;2022-10-26T08:30:52;6.43;;;3.50;;
10517;SDS011;5307;42.548;22.968;2022-10-26T08:33:19;9.32;;;3.28;;
10517;SDS011;5307;42.548;22.968;2022-10-26T08:35:46;6.05;;;2.67;;
10517;SDS011;5307;42.548;22.968;2022-10-26T08:38:15;6.47;;;2.72;;
10517;SDS011;5307;42.548;22.968;2022-10-26T08:40:42;5.57;;;2.30;;
10517;SDS011;5307;42.548;22.968;2022-10-26T08:43:11;20.02;;;3.60;;
10517;SDS011;5307;42.548;22.968;2022-10-26T08:45:44;8.80;;;3.20;;
10517;SDS011;5307;42.548;22.968;2022-10-26T08:48:17;12.50;;;3.17;;
10517;SDS011;5307;42.548;22.968;2022-10-26T08:50:50;5.57;;;2.97;;
10517;SDS011;5307;42.548;22.968;2022-10-26T08:53:21;11.70;;;4.22;;
10517;SDS011;5307;42.548;22.968;2022-10-26T08:55:54;5.93;;;2.78;;
10517;SDS011;5307;42.548;22.968;2022-10-26T08:58:26;9.27;;;3.90;;
10517;SDS011;5307;42.548;22.968;2022-10-26T09:00:57;10.50;;;3.45;;
10517;SDS011;5307;42.548;22.968;2022-10-26T09:03:24;5.97;;;2.20;;
10517;SDS011;5307;42.548;22.968;2022-10-26T09:05:57;5.47;;;2.50;;
10517;SDS011;5307;42.548;22.968;2022-10-26T09:08:36;3.92;;;2.33;;
10517;SDS011;5307;42.548;22.968;2022-10-26T09:11:14;6.13;;;2.53;;
10517;SDS011;5307;42.548;22.968;2022-10-26T09:13:51;5.55;;;2.45;;
10517;SDS011;5307;42.548;22.968;2022-10-26T09:16:29;8.43;;;2.35;;
10517;SDS011;5307;42.548;22.968;2022-10-26T09:19:10;4.43;;;2.20;;
10517;SDS011;5307;42.548;22.968;2022-10-26T09:21:49;10.60;;;3.10;;
10517;SDS011;5307;42.548;22.968;2022-10-26T09:24:28;3.42;;;2.50;;
10517;SDS011;5307;42.548;22.968;2022-10-26T09:26:57;2.20;;;1.52;;
10517;SDS011;5307;42.548;22.968;2022-10-26T09:29:34;5.15;;;1.95;;
10517;SDS011;5307;42.548;22.968;2022-10-26T09:32:08;9.88;;;4.22;;
10517;SDS011;5307;42.548;22.968;2022-10-26T09:34:40;3.05;;;1.40;;
10517;SDS011;5307;42.548;22.968;2022-10-26T09:37:12;13.88;;;2.78;;
10517;SDS011;5307;42.548;22.968;2022-10-26T09:39:46;1.75;;;0.93;;
10517;SDS011;5307;42.548;22.968;2022-10-26T09:42:21;2.95;;;1.25;;
10517;SDS011;5307;42.548;22.968;2022-10-26T09:44:53;2.80;;;1.50;;
10517;SDS011;5307;42.548;22.968;2022-10-26T09:47:28;2.97;;;1.55;;
10517;SDS011;5307;42.548;22.968;2022-10-26T09:50:00;3.38;;;1.38;;
10517;SDS011;5307;42.548;22.968;2022-10-26T09:52:31;1.83;;;1.27;;
10517;SDS011;5307;42.548;22.968;2022-10-26T09:55:00;3.30;;;1.40;;
10517;SDS011;5307;42.548;22.968;2022-10-26T09:57:29;1.77;;;1.55;;
10517;SDS011;5307;42.548;22.968;2022-10-26T09:59:56;5.53;;;2.17;;
10517;SDS011;5307;42.548;22.968;2022-10-26T10:02:35;6.57;;;1.98;;
10517;SDS011;5307;42.548;22.968;2022-10-26T10:07:50;2.38;;;1.70;;
10517;SDS011;5307;42.548;22.968;2022-10-26T10:10:19;3.53;;;2.10;;
10517;SDS011;5307;42.548;22.968;2022-10-26T10:12:47;4.70;;;2.28;;
10517;SDS011;5307;42.548;22.968;2022-10-26T10:15:17;7.28;;;2.13;;
10517;SDS011;5307;42.548;22.968;2022-10-26T10:17:46;4.68;;;2.50;;
10517;SDS011;5307;42.548;22.968;2022-10-26T10:20:17;4.38;;;2.05;;
10517;SDS011;5307;42.548;22.968;2022-10-26T10:22:53;3.97;;;1.70;;
10517;SDS011;5307;42.548;22.968;2022-10-26T10:25:23;10.07;;;2.10;;
10517;SDS011;5307;42.548;22.968;2022-10-26T10:27:57;4.05;;;1.98;;
10517;SDS011;5307;42.548;22.968;2022-10-26T10:30:26;3.83;;;1.70;;
10517;SDS011;5307;42.548;22.968;2022-10-26T10:33:05;4.07;;;1.73;;
10517;SDS011;5307;42.548;22.968;2022-10-26T10:35:33;4.78;;;2.50;;
10517;SDS011;5307;42.548;22.968;2022-10-26T10:38:01;2.55;;;1.73;;
10517;SDS011;5307;42.548;22.968;2022-10-26T10:40:30;5.38;;;2.70;;
10517;SDS011;5307;42.548;22.968;2022-10-26T10:43:04;3.72;;;1.58;;
10517;SDS011;5307;42.548;22.968;2022-10-26T10:45:36;4.32;;;2.00;;
10517;SDS011;5307;42.548;22.968;2022-10-26T10:48:04;7.05;;;2.03;;
10517;SDS011;5307;42.548;22.968;2022-10-26T10:50:49;6.60;;;1.70;;
10517;SDS011;5307;42.548;22.968;2022-10-26T10:53:19;3.58;;;2.00;;
10517;SDS011;5307;42.548;22.968;2022-10-26T10:56:06;7.25;;;1.50;;
10517;SDS011;5307;42.548;22.968;2022-10-26T10:58:48;3.72;;;1.58;;
10517;SDS011;5307;42.548;22.968;2022-10-26T11:01:22;1.55;;;1.30;;
10517;SDS011;5307;42.548;22.968;2022-10-26T11:04:09;6.00;;;1.65;;
10517;SDS011;5307;42.548;22.968;2022-10-26T11:06:49;2.08;;;1.30;;
10517;SDS011;5307;42.548;22.968;2022-10-26T11:09:20;2.55;;;1.50;;
10517;SDS011;5307;42.548;22.968;2022-10-26T11:11:53;4.93;;;1.85;;
10517;SDS011;5307;42.548;22.968;2022-10-26T11:14:24;2.30;;;1.52;;
10517;SDS011;5307;42.548;22.968;2022-10-26T11:16:54;5.82;;;1.83;;
10517;SDS011;5307;42.548;22.968;2022-10-26T11:19:28;5.13;;;1.75;;
10517;SDS011;5307;42.548;22.968;2022-10-26T11:21:59;7.85;;;1.73;;
10517;SDS011;5307;42.548;22.968;2022-10-26T11:24:30;3.08;;;1.77;;
10517;SDS011;5307;42.548;22.968;2022-10-26T11:27:07;4.28;;;1.40;;
10517;SDS011;5307;42.548;22.968;2022-10-26T11:29:42;3.00;;;1.90;;
10517;SDS011;5307;42.548;22.968;2022-10-26T11:32:15;3.20;;;1.73;;
10517;SDS011;5307;42.548;22.968;2022-10-26T11:34:48;2.67;;;1.30;;
10517;SDS011;5307;42.548;22.968;2022-10-26T11:37:22;3.38;;;1.27;;
10517;SDS011;5307;42.548;22.968;2022-10-26T11:40:00;5.10;;;1.48;;
10517;SDS011;5307;42.548;22.968;2022-10-26T11:42:31;4.18;;;1.83;;
10517;SDS011;5307;42.548;22.968;2022-10-26T11:45:03;4.35;;;1.63;;
10517;SDS011;5307;42.548;22.968;2022-10-26T11:47:39;3.55;;;2.15;;
10517;SDS011;5307;42.548;22.968;2022-10-26T11:50:12;2.53;;;1.50;;
10517;SDS011;5307;42.548;22.968;2022-10-26T11:52:43;2.95;;;1.67;;
10517;SDS011;5307;42.548;22.968;2022-10-26T11:55:13;2.38;;;1.45;;
10517;SDS011;5307;42.548;22.968;2022-10-26T11:57:41;3.97;;;1.70;;
10517;SDS011;5307;42.548;22.968;2022-10-26T12:00:14;4.85;;;1.67;;
10517;SDS011;5307;42.548;22.968;2022-10-26T12:02:43;1.00;;;0.95;;
10517;SDS011;5307;42.548;22.968;2022-10-26T12:05:19;4.68;;;1.60;;
10517;SDS011;5307;42.548;22.968;2022-10-26T12:07:49;2.08;;;1.45;;
10517;SDS011;5307;42.548;22.968;2022-10-26T12:10:23;3.63;;;1.70;;
10517;SDS011;5307;42.548;22.968;2022-10-26T12:13:06;4.03;;;1.38;;
10517;SDS011;5307;42.548;22.968;2022-10-26T12:15:45;2.90;;;1.52;;
10517;SDS011;5307;42.548;22.968;2022-10-26T12:18:16;3.92;;;1.40;;
10517;SDS011;5307;42.548;22.968;2022-10-26T12:20:55;3.90;;;1.23;;
10517;SDS011;5307;42.548;22.968;2022-10-26T12:23:27;3.10;;;1.38;;
10517;SDS011;5307;42.548;22.968;2022-10-26T12:32:04;6.90;;;1.42;;
10517;SDS011;5307;42.548;22.968;2022-10-26T12:35:01;2.22;;;1.33;;
10517;SDS011;5307;42.548;22.968;2022-10-26T12:37:31;3.25;;;1.50;;
10517;SDS011;5307;42.548;22.968;2022-10-26T12:43:31;2.17;;;1.45;;
10517;SDS011;5307;42.548;22.968;2022-10-26T12:52:29;4.30;;;2.75;;
10517;SDS011;5307;42.548;22.968;2022-10-26T12:55:07;2.65;;;1.60;;
10517;SDS011;5307;42.548;22.968;2022-10-26T12:57:46;3.50;;;1.90;;
10517;SDS011;5307;42.548;22.968;2022-10-26T13:00:23;4.88;;;1.90;;
10517;SDS011;5307;42.548;22.968;2022-10-26T13:02:53;6.65;;;1.70;;
10517;SDS011;5307;42.548;22.968;2022-10-26T13:05:38;1.63;;;1.20;;
10517;SDS011;5307;42.548;22.968;2022-10-26T13:08:23;4.53;;;1.25;;
10517;SDS011;5307;42.548;22.968;2022-10-26T13:10:59;2.80;;;1.42;;
10517;SDS011;5307;42.548;22.968;2022-10-26T13:13:29;2.28;;;1.40;;
10517;SDS011;5307;42.548;22.968;2022-10-26T13:15:58;3.25;;;1.10;;
10517;SDS011;5307;42.548;22.968;2022-10-26T13:18:26;1.80;;;1.40;;
10517;SDS011;5307;42.548;22.968;2022-10-26T13:20:57;2.65;;;1.10;;
10517;SDS011;5307;42.548;22.968;2022-10-26T13:23:30;3.05;;;1.10;;
10517;SDS011;5307;42.548;22.968;2022-10-26T13:26:03;1.80;;;1.17;;
10517;SDS011;5307;42.548;22.968;2022-10-26T13:28:41;43.15;;;19.45;;
10517;SDS011;5307;42.548;22.968;2022-10-26T13:31:11;8.63;;;1.38;;
10517;SDS011;5307;42.548;22.968;2022-10-26T13:33:45;3.58;;;1.40;;
10517;SDS011;5307;42.548;22.968;2022-10-26T13:36:14;2.45;;;1.35;;
10517;SDS011;5307;42.548;22.968;2022-10-26T13:38:47;23.00;;;11.23;;
10517;SDS011;5307;42.548;22.968;2022-10-26T13:41:20;44.42;;;21.52;;
10517;SDS011;5307;42.548;22.968;2022-10-26T13:43:52;45.70;;;29.83;;
10517;SDS011;5307;42.548;22.968;2022-10-26T13:46:22;9.05;;;3.78;;
10517;SDS011;5307;42.548;22.968;2022-10-26T13:48:57;3.45;;;1.40;;
10517;SDS011;5307;42.548;22.968;2022-10-26T13:51:37;6.15;;;1.30;;
10517;SDS011;5307;42.548;22.968;2022-10-26T13:54:11;6.03;;;4.30;;
10517;SDS011;5307;42.548;22.968;2022-10-26T13:56:47;3.17;;;1.33;;
10517;SDS011;5307;42.548;22.968;2022-10-26T13:59:27;3.70;;;1.50;;
10517;SDS011;5307;42.548;22.968;2022-10-26T14:02:07;8.40;;;2.28;;
10517;SDS011;5307;42.548;22.968;2022-10-26T14:04:43;4.05;;;1.58;;
10517;SDS011;5307;42.548;22.968;2022-10-26T14:07:12;2.72;;;1.45;;
10517;SDS011;5307;42.548;22.968;2022-10-26T14:09:49;3.60;;;1.65;;
10517;SDS011;5307;42.548;22.968;2022-10-26T14:12:17;1.73;;;1.42;;
10517;SDS011;5307;42.548;22.968;2022-10-26T14:14:44;5.10;;;1.88;;
10517;SDS011;5307;42.548;22.968;2022-10-26T14:17:14;4.68;;;1.63;;
10517;SDS011;5307;42.548;22.968;2022-10-26T14:19:44;4.75;;;2.28;;
10517;SDS011;5307;42.548;22.968;2022-10-26T14:22:20;9.27;;;3.50;;
10517;SDS011;5307;42.548;22.968;2022-10-26T14:24:51;6.55;;;2.80;;
10517;SDS011;5307;42.548;22.968;2022-10-26T14:27:20;2.78;;;2.08;;
10517;SDS011;5307;42.548;22.968;2022-10-26T14:29:49;5.72;;;1.70;;
10517;SDS011;5307;42.548;22.968;2022-10-26T14:32:20;5.32;;;2.03;;
10517;SDS011;5307;42.548;22.968;2022-10-26T14:34:48;3.45;;;1.70;;
10517;SDS011;5307;42.548;22.968;2022-10-26T14:37:19;5.20;;;2.13;;
10517;SDS011;5307;42.548;22.968;2022-10-26T14:39:52;4.78;;;1.98;;
10517;SDS011;5307;42.548;22.968;2022-10-26T14:42:22;3.80;;;1.83;;
10517;SDS011;5307;42.548;22.968;2022-10-26T14:44:53;3.72;;;1.80;;
10517;SDS011;5307;42.548;22.968;2022-10-26T14:47:22;4.00;;;1.95;;
10517;SDS011;5307;42.548;22.968;2022-10-26T14:49:50;7.68;;;2.22;;
10517;SDS011;5307;42.548;22.968;2022-10-26T14:52:19;3.13;;;1.80;;
10517;SDS011;5307;42.548;22.968;2022-10-26T14:54:57;8.68;;;1.80;;
10517;SDS011;5307;42.548;22.968;2022-10-26T14:57:29;5.55;;;2.08;;
10517;SDS011;5307;42.548;22.968;2022-10-26T15:00:01;4.75;;;1.73;;
10517;SDS011;5307;42.548;22.968;2022-10-26T15:02:30;6.68;;;2.00;;
10517;SDS011;5307;42.548;22.968;2022-10-26T15:05:00;8.00;;;2.15;;
10517;SDS011;5307;42.548;22.968;2022-10-26T15:07:37;6.55;;;2.47;;
10517;SDS011;5307;42.548;22.968;2022-10-26T15:13:19;1.70;;;1.40;;
10517;SDS011;5307;42.548;22.968;2022-10-26T15:15:50;6.10;;;1.70;;
10517;SDS011;5307;42.548;22.968;2022-10-26T15:18:19;3.33;;;1.70;;
10517;SDS011;5307;42.548;22.968;2022-10-26T15:20:49;5.88;;;2.10;;
10517;SDS011;5307;42.548;22.968;2022-10-26T15:23:17;2.67;;;2.08;;
10517;SDS011;5307;42.548;22.968;2022-10-26T15:25:52;13.07;;;2.85;;
10517;SDS011;5307;42.548;22.968;2022-10-26T15:28:21;3.40;;;2.85;;